createdAt,value
2023-03-04T00:00:09.218Z,46.53
2023-03-04T00:02:39.728Z,39.50
2023-03-04T00:05:08.471Z,36.87
2023-03-04T00:07:37.760Z,38.00
2023-03-04T00:10:06.518Z,39.27
2023-03-04T00:12:34.256Z,37.37
2023-03-04T00:15:02.066Z,36.20
2023-03-04T00:17:31.528Z,39.63
2023-03-04T00:19:59.587Z,35.67
2023-03-04T00:22:27.392Z,37.67
2023-03-04T00:24:58.219Z,37.70
2023-03-04T00:27:26.003Z,36.53
2023-03-04T00:29:54.304Z,36.87
2023-03-04T00:32:22.769Z,38.20
2023-03-04T00:34:50.835Z,38.50
2023-03-04T00:37:18.732Z,36.40
2023-03-04T00:39:46.462Z,38.63
2023-03-04T00:42:16.535Z,37.60
2023-03-04T00:44:44.633Z,37.07
2023-03-04T00:47:13.456Z,38.87
2023-03-04T00:49:41.224Z,38.93
2023-03-04T00:52:10.268Z,38.67
2023-03-04T00:54:38.065Z,38.90
2023-03-04T00:57:05.780Z,39.67
2023-03-04T00:59:34.818Z,37.47
2023-03-04T01:02:03.053Z,36.07
2023-03-04T01:04:31.299Z,39.33
2023-03-04T01:07:00.846Z,39.67
2023-03-04T01:09:30.295Z,39.97
2023-03-04T01:11:58.534Z,37.37
2023-03-04T01:14:26.577Z,39.13
2023-03-04T01:16:56.455Z,38.57
2023-03-04T01:19:24.696Z,38.40
2023-03-04T01:21:53.646Z,38.17
2023-03-04T01:24:23.297Z,40.00
2023-03-04T01:26:51.043Z,36.80
2023-03-04T01:29:18.821Z,37.83
2023-03-04T01:31:46.464Z,37.90
2023-03-04T01:34:15.885Z,37.57
2023-03-04T01:36:43.592Z,38.63
2023-03-04T01:39:12.832Z,38.60
2023-03-04T01:41:40.781Z,38.27
2023-03-04T01:44:11.938Z,38.47
2023-03-04T01:46:44.669Z,40.13
2023-03-04T01:49:17.082Z,40.07
2023-03-04T01:51:49.104Z,39.73
2023-03-04T01:54:16.896Z,39.53
2023-03-04T01:56:46.395Z,38.83
2023-03-04T01:59:17.047Z,39.47
2023-03-04T02:01:47.791Z,38.33
2023-03-04T02:04:18.506Z,38.33
2023-03-04T02:06:48.176Z,39.47
2023-03-04T02:09:17.187Z,37.97
2023-03-04T02:11:47.358Z,39.20
2023-03-04T02:14:17.097Z,39.60
2023-03-04T02:16:49.361Z,38.50
2023-03-04T02:19:31.242Z,40.13
2023-03-04T02:21:59.544Z,38.70
2023-03-04T02:24:33.359Z,37.93
2023-03-04T02:27:02.776Z,38.03
2023-03-04T02:29:30.729Z,39.40
2023-03-04T02:31:59.606Z,37.30
2023-03-04T02:34:31.124Z,36.27
2023-03-04T02:37:00.146Z,38.03
2023-03-04T02:39:34.161Z,38.80
2023-03-04T02:42:05.106Z,38.73
2023-03-04T02:44:36.912Z,37.80
2023-03-04T02:47:06.708Z,37.30
2023-03-04T02:49:35.518Z,37.23
2023-03-04T02:52:05.668Z,38.00
2023-03-04T02:54:34.236Z,38.27
2023-03-04T02:57:07.042Z,37.73
2023-03-04T02:59:37.468Z,37.57
2023-03-04T03:02:05.854Z,38.00
2023-03-04T03:04:35.572Z,39.27
2023-03-04T03:07:04.177Z,37.67
2023-03-04T03:09:32.718Z,36.73
2023-03-04T03:12:01.291Z,37.17
2023-03-04T03:14:32.664Z,38.30
2023-03-04T03:17:00.688Z,37.87
2023-03-04T03:19:28.496Z,37.03
2023-03-04T03:21:56.216Z,36.13
2023-03-04T03:24:24.684Z,35.97
2023-03-04T03:26:52.368Z,36.37
2023-03-04T03:29:21.196Z,34.63
2023-03-04T03:31:50.267Z,36.27
2023-03-04T03:34:20.132Z,35.63
2023-03-04T03:36:48.787Z,36.77
2023-03-04T03:39:16.699Z,34.93
2023-03-04T03:41:44.533Z,36.80
2023-03-04T03:44:12.208Z,36.03
2023-03-04T03:46:39.841Z,34.17
2023-03-04T03:49:09.130Z,36.60
2023-03-04T03:51:36.838Z,34.53
2023-03-04T03:54:04.635Z,33.77
2023-03-04T03:56:32.483Z,34.03
2023-03-04T03:59:01.124Z,37.43
2023-03-04T04:01:28.879Z,37.57
2023-03-04T04:03:56.854Z,36.97
2023-03-04T04:06:26.061Z,35.90
2023-03-04T04:08:53.853Z,35.77
2023-03-04T04:11:21.681Z,38.20
2023-03-04T04:13:50.136Z,36.77
2023-03-04T04:16:17.985Z,36.23
2023-03-04T04:18:45.879Z,37.37
2023-03-04T04:21:13.583Z,38.70
2023-03-04T04:23:42.703Z,39.03
2023-03-04T04:26:10.600Z,35.27
2023-03-04T04:28:38.279Z,37.43
2023-03-04T04:31:08.510Z,36.47
2023-03-04T04:33:36.776Z,35.30
2023-03-04T04:36:05.600Z,36.70
2023-03-04T04:38:33.399Z,36.97
2023-03-04T04:41:02.770Z,40.17
2023-03-04T04:43:30.476Z,39.93
2023-03-04T04:46:00.458Z,41.73
2023-03-04T04:48:28.600Z,39.23
2023-03-04T04:50:57.166Z,41.47
2023-03-04T04:53:25.321Z,40.13
2023-03-04T04:55:53.065Z,40.57
2023-03-04T04:58:34.817Z,41.27
2023-03-04T05:01:03.453Z,41.97
2023-03-04T05:03:31.466Z,41.93
2023-03-04T05:06:00.444Z,40.60
2023-03-04T05:08:28.835Z,41.60
2023-03-04T05:10:57.009Z,39.13
2023-03-04T05:13:27.063Z,39.50
2023-03-04T05:15:57.093Z,41.30
2023-03-04T05:18:27.997Z,40.43
2023-03-04T05:20:58.721Z,39.40
2023-03-04T05:23:28.033Z,39.37
2023-03-04T05:25:56.900Z,39.80
2023-03-04T05:28:26.605Z,38.93
2023-03-04T05:30:54.944Z,39.50
2023-03-04T05:33:23.010Z,38.93
2023-03-04T05:35:51.430Z,38.80
2023-03-04T05:38:21.023Z,38.97
2023-03-04T05:40:49.846Z,39.57
2023-03-04T05:43:17.697Z,39.57
2023-03-04T05:45:46.957Z,39.93
2023-03-04T05:48:14.652Z,38.83
2023-03-04T05:50:42.525Z,38.83
2023-03-04T05:53:10.633Z,39.80
2023-03-04T05:55:38.522Z,38.40
2023-03-04T05:58:06.857Z,39.60
2023-03-04T06:00:34.926Z,39.93
2023-03-04T06:03:04.149Z,40.93
2023-03-04T06:05:32.613Z,38.83
2023-03-04T06:08:00.334Z,40.83
2023-03-04T06:10:28.064Z,39.10
2023-03-04T06:12:55.790Z,40.70
2023-03-04T06:15:23.525Z,38.17
2023-03-04T06:17:51.238Z,38.67
2023-03-04T06:20:20.614Z,38.37
2023-03-04T06:22:48.349Z,38.47
2023-03-04T06:25:16.670Z,38.27
2023-03-04T06:27:44.353Z,37.77
2023-03-04T06:30:13.280Z,38.03
2023-03-04T06:32:44.369Z,38.17
2023-03-04T06:35:12.840Z,39.07
2023-03-04T06:37:42.051Z,37.80
2023-03-04T06:40:11.191Z,37.70
2023-03-04T06:42:39.979Z,35.80
2023-03-04T06:45:09.013Z,37.20
2023-03-04T06:47:36.846Z,37.13
2023-03-04T06:50:05.443Z,37.90
2023-03-04T06:52:33.972Z,35.77
2023-03-04T06:55:03.166Z,37.80
2023-03-04T06:57:30.873Z,35.27
2023-03-04T06:59:59.957Z,38.07
2023-03-04T07:02:27.732Z,38.27
2023-03-04T07:04:55.524Z,37.67
2023-03-04T07:07:23.401Z,38.87
2023-03-04T07:09:51.120Z,36.40
2023-03-04T07:12:20.600Z,40.03
2023-03-04T07:14:48.288Z,37.77
2023-03-04T07:17:15.968Z,184.50
2023-03-04T07:19:44.735Z,42.07
2023-03-04T07:22:12.857Z,39.50
2023-03-04T07:24:40.654Z,37.23
2023-03-04T07:27:08.315Z,36.17
2023-03-04T07:29:37.434Z,37.97
2023-03-04T07:32:08.801Z,38.60
2023-03-04T07:34:37.629Z,39.67
2023-03-04T07:37:05.587Z,38.53
2023-03-04T07:39:33.305Z,39.93
2023-03-04T07:42:00.980Z,40.13
2023-03-04T07:44:29.117Z,41.57
2023-03-04T07:46:59.322Z,38.80
2023-03-04T07:49:27.525Z,38.80
2023-03-04T07:51:55.186Z,36.73
2023-03-04T07:54:22.910Z,37.00
2023-03-04T07:56:50.620Z,36.67
2023-03-04T07:59:18.355Z,35.78
2023-03-04T08:01:46.465Z,35.13
2023-03-04T08:04:15.739Z,36.37
2023-03-04T08:06:45.260Z,137.90
2023-03-04T08:09:14.103Z,89.13
2023-03-04T08:11:42.354Z,38.10
2023-03-04T08:14:12.182Z,36.33
2023-03-04T08:16:40.712Z,34.83
2023-03-04T08:19:08.646Z,36.72
2023-03-04T08:21:37.922Z,36.37
2023-03-04T08:24:08.685Z,35.50
2023-03-04T08:26:41.300Z,34.70
2023-03-04T08:29:11.181Z,34.70
2023-03-04T08:31:39.846Z,34.77
2023-03-04T08:34:10.422Z,33.92
2023-03-04T08:36:39.800Z,34.17
2023-03-04T08:39:08.061Z,34.75
2023-03-04T08:41:35.750Z,33.90
2023-03-04T08:44:03.583Z,33.63
2023-03-04T08:46:31.970Z,35.45
2023-03-04T08:49:00.268Z,34.92
2023-03-04T08:51:28.295Z,36.47
2023-03-04T08:53:57.740Z,34.28
2023-03-04T08:56:25.992Z,34.83
2023-03-04T08:58:53.697Z,35.53
2023-03-04T09:01:21.548Z,34.67
2023-03-04T09:03:49.317Z,34.45
2023-03-04T09:06:18.420Z,35.00
2023-03-04T09:08:47.216Z,33.53
2023-03-04T09:11:16.973Z,32.50
2023-03-04T09:13:45.358Z,34.45
2023-03-04T09:16:15.692Z,33.17
2023-03-04T09:18:44.789Z,32.63
2023-03-04T09:21:12.683Z,31.90
2023-03-04T09:23:40.616Z,31.60
2023-03-04T09:26:18.557Z,29.23
2023-03-04T09:28:46.700Z,27.83
2023-03-04T09:31:15.410Z,29.98
2023-03-04T09:33:43.487Z,30.85
2023-03-04T09:36:13.517Z,29.77
2023-03-04T09:38:42.073Z,29.20
2023-03-04T09:41:11.768Z,28.40
2023-03-04T09:43:41.341Z,29.92
2023-03-04T09:46:13.190Z,30.30
2023-03-04T09:48:46.551Z,29.27
2023-03-04T09:51:22.246Z,28.38
2023-03-04T09:54:00.123Z,27.83
2023-03-04T09:56:29.167Z,26.88
2023-03-04T09:59:05.687Z,26.85
2023-03-04T10:01:40.590Z,28.30
2023-03-04T10:04:15.437Z,27.25
2023-03-04T10:06:43.782Z,27.52
2023-03-04T10:09:15.447Z,26.38
2023-03-04T10:11:46.811Z,28.48
2023-03-04T10:14:34.036Z,28.23
2023-03-04T10:17:08.133Z,27.90
2023-03-04T10:19:45.200Z,25.65
2023-03-04T10:22:22.045Z,26.50
2023-03-04T10:24:50.680Z,25.98
2023-03-04T10:27:20.746Z,24.83
2023-03-04T10:29:50.523Z,24.92
2023-03-04T10:32:20.777Z,24.23
2023-03-04T10:34:49.477Z,24.55
2023-03-04T10:37:17.165Z,22.20
2023-03-04T10:39:46.476Z,22.90
2023-03-04T10:42:29.774Z,21.75
2023-03-04T10:45:01.481Z,20.90
2023-03-04T10:47:32.788Z,22.80
2023-03-04T10:50:02.957Z,21.23
2023-03-04T10:52:33.237Z,20.58
2023-03-04T10:55:05.331Z,19.98
2023-03-04T10:57:37.357Z,17.58
2023-03-04T11:00:29.527Z,17.83
2023-03-04T11:03:29.045Z,16.75
2023-03-04T11:06:19.550Z,15.18
2023-03-04T11:08:55.048Z,13.13
2023-03-04T11:11:24.566Z,12.55
2023-03-04T11:13:54.250Z,12.45
2023-03-04T11:16:28.745Z,12.50
2023-03-04T11:19:00.918Z,13.85
2023-03-04T11:21:32.628Z,13.73
2023-03-04T11:24:03.237Z,13.73
2023-03-04T11:26:36.192Z,13.35
2023-03-04T11:29:14.157Z,13.05
2023-03-04T11:31:50.277Z,13.15
2023-03-04T11:34:30.294Z,13.07
2023-03-04T11:37:03.562Z,10.80
2023-03-04T11:39:37.185Z,12.60
2023-03-04T11:42:12.601Z,11.50
2023-03-04T11:44:41.442Z,11.43
2023-03-04T11:47:22.704Z,12.68
2023-03-04T11:50:08.608Z,12.45
2023-03-04T11:52:53.736Z,12.13
2023-03-04T11:55:38.927Z,13.00
2023-03-04T11:58:35.379Z,12.30
2023-03-04T12:01:10.190Z,12.90
2023-03-04T12:03:58.754Z,12.95
2023-03-04T12:06:36.409Z,14.63
2023-03-04T12:09:26.190Z,14.73
2023-03-04T12:12:05.023Z,13.18
2023-03-04T12:14:41.310Z,11.98
2023-03-04T12:17:34.277Z,13.30
2023-03-04T12:20:27.150Z,12.60
2023-03-04T12:23:03.437Z,11.43
2023-03-04T12:25:45.314Z,12.30
2023-03-04T12:28:52.235Z,13.60
2023-03-04T12:31:34.501Z,13.25
2023-03-04T12:34:34.367Z,13.85
2023-03-04T12:37:29.172Z,13.82
2023-03-04T12:40:17.297Z,13.55
2023-03-04T12:42:59.176Z,14.27
2023-03-04T12:45:31.895Z,13.48
2023-03-04T12:48:07.686Z,13.93
2023-03-04T12:50:43.072Z,14.77
2023-03-04T12:53:23.640Z,14.18
2023-03-04T12:55:53.409Z,14.35
2023-03-04T12:58:25.077Z,14.15
2023-03-04T13:01:01.280Z,13.13
2023-03-04T13:03:39.878Z,12.90
2023-03-04T13:06:17.867Z,12.98
2023-03-04T13:09:00.527Z,11.88
2023-03-04T13:11:53.689Z,11.45
2023-03-04T13:14:27.302Z,12.40
2023-03-04T13:16:57.211Z,17.13
2023-03-04T13:19:48.301Z,14.85
2023-03-04T13:22:33.503Z,11.82
2023-03-04T13:25:33.725Z,11.38
2023-03-04T13:28:26.472Z,11.43
2023-03-04T13:31:17.118Z,11.25
2023-03-04T13:34:01.346Z,14.45
2023-03-04T13:37:00.346Z,12.65
2023-03-04T13:39:37.308Z,11.90
2023-03-04T13:42:40.881Z,10.35
2023-03-04T13:45:33.949Z,11.38
2023-03-04T13:48:04.316Z,11.38
2023-03-04T13:50:41.360Z,12.10
2023-03-04T13:53:43.976Z,12.05
2023-03-04T13:56:22.073Z,10.00
2023-03-04T13:58:53.513Z,9.02
2023-03-04T14:01:26.572Z,10.25
2023-03-04T14:03:54.704Z,9.82
2023-03-04T14:06:24.232Z,9.77
2023-03-04T14:08:53.471Z,7.72
2023-03-04T14:11:29.150Z,8.43
2023-03-04T14:14:00.956Z,9.20
2023-03-04T14:16:30.534Z,8.50
2023-03-04T14:19:07.001Z,8.52
2023-03-04T14:21:37.660Z,9.10
2023-03-04T14:24:08.565Z,9.07
2023-03-04T14:26:37.119Z,9.02
2023-03-04T14:29:26.489Z,8.27
2023-03-04T14:31:56.495Z,8.93
2023-03-04T14:34:32.225Z,8.48
2023-03-04T14:37:00.229Z,8.82
2023-03-04T14:39:33.257Z,8.88
2023-03-04T14:42:09.916Z,8.82
2023-03-04T14:44:45.506Z,8.98
2023-03-04T14:47:20.775Z,9.30
2023-03-04T14:49:49.692Z,8.10
2023-03-04T14:52:36.090Z,8.40
2023-03-04T14:55:22.396Z,7.07
2023-03-04T14:57:58.688Z,8.02
2023-03-04T15:00:32.319Z,7.72
2023-03-04T15:03:07.516Z,7.50
2023-03-04T15:05:37.528Z,7.35
2023-03-04T15:08:20.005Z,7.50
2023-03-04T15:10:58.020Z,6.80
2023-03-04T15:13:42.197Z,6.38
2023-03-04T15:16:17.104Z,7.88
2023-03-04T15:18:57.585Z,7.03
2023-03-04T15:21:36.901Z,6.93
2023-03-04T15:24:07.225Z,6.47
2023-03-04T15:26:41.514Z,6.95
2023-03-04T15:29:15.796Z,6.88
2023-03-04T15:31:48.525Z,6.82
2023-03-04T15:34:18.621Z,7.20
2023-03-04T15:36:50.056Z,7.07
2023-03-04T15:39:21.588Z,6.85
2023-03-04T15:41:50.542Z,8.00
2023-03-04T15:44:19.353Z,7.55
2023-03-04T15:46:48.979Z,8.07
2023-03-04T15:49:17.491Z,8.20
2023-03-04T15:51:45.526Z,8.35
2023-03-04T15:54:14.919Z,7.75
2023-03-04T15:56:43.182Z,8.23
2023-03-04T15:59:14.841Z,8.77
2023-03-04T16:01:43.457Z,8.63
2023-03-04T16:04:17.184Z,8.38
2023-03-04T16:06:46.806Z,8.07
2023-03-04T16:09:17.464Z,8.80
2023-03-04T16:11:47.512Z,8.25
2023-03-04T16:14:17.047Z,8.52
2023-03-04T16:16:47.023Z,9.90
2023-03-04T16:19:17.835Z,8.85
2023-03-04T16:21:46.176Z,9.50
2023-03-04T16:24:18.831Z,9.02
2023-03-04T16:26:47.576Z,9.93
2023-03-04T16:29:17.200Z,10.00
2023-03-04T16:31:45.794Z,9.35
2023-03-04T16:34:16.319Z,10.10
2023-03-04T16:36:44.609Z,9.63
2023-03-04T16:39:21.281Z,9.30
2023-03-04T16:41:49.924Z,9.25
2023-03-04T16:44:18.699Z,10.35
2023-03-04T16:46:47.104Z,9.95
2023-03-04T16:49:16.970Z,10.35
2023-03-04T16:51:49.343Z,9.25
2023-03-04T16:54:25.490Z,8.40
2023-03-04T16:56:53.835Z,9.15
2023-03-04T16:59:22.120Z,9.15
2023-03-04T17:01:50.931Z,9.07
2023-03-04T17:04:20.866Z,9.55
2023-03-04T17:06:49.074Z,9.70
2023-03-04T17:09:18.675Z,10.27
2023-03-04T17:11:48.316Z,9.68
2023-03-04T17:14:17.393Z,10.48
2023-03-04T17:16:45.794Z,10.13
2023-03-04T17:19:14.513Z,10.40
2023-03-04T17:21:44.458Z,9.65
2023-03-04T17:24:13.123Z,10.85
2023-03-04T17:26:43.180Z,10.48
2023-03-04T17:29:13.136Z,11.30
2023-03-04T17:31:41.018Z,9.80
2023-03-04T17:34:08.878Z,9.60
2023-03-04T17:36:37.014Z,11.00
2023-03-04T17:39:07.079Z,9.05
2023-03-04T17:41:36.228Z,9.75
2023-03-04T17:44:05.830Z,10.40
2023-03-04T17:46:33.937Z,9.93
2023-03-04T17:49:02.057Z,9.60
2023-03-04T17:51:32.356Z,10.68
2023-03-04T17:54:01.888Z,11.88
2023-03-04T17:56:31.376Z,10.30
2023-03-04T17:59:00.735Z,10.38
2023-03-04T18:01:30.281Z,10.85
2023-03-04T18:03:58.043Z,9.85
2023-03-04T18:06:25.932Z,9.88
2023-03-04T18:08:54.285Z,10.05
2023-03-04T18:11:23.025Z,9.85
2023-03-04T18:13:54.873Z,9.15
2023-03-04T18:16:26.693Z,9.50
2023-03-04T18:18:55.276Z,9.88
2023-03-04T18:21:22.940Z,9.50
2023-03-04T18:23:51.044Z,9.50
2023-03-04T18:26:21.204Z,14.48
2023-03-04T18:28:48.946Z,9.73
2023-03-04T18:31:20.951Z,7.53
2023-03-04T18:33:48.951Z,8.27
2023-03-04T18:36:16.790Z,7.65
2023-03-04T18:38:44.737Z,7.80
2023-03-04T18:41:14.770Z,7.88
2023-03-04T18:43:43.296Z,7.50
2023-03-04T18:46:20.067Z,8.15
2023-03-04T18:48:54.874Z,8.48
2023-03-04T18:51:24.805Z,7.28
2023-03-04T18:53:53.518Z,9.07
2023-03-04T18:56:28.047Z,7.43
2023-03-04T18:59:39.550Z,8.00
2023-03-04T19:02:36.094Z,7.90
2023-03-04T19:05:14.149Z,7.25
2023-03-04T19:07:44.470Z,7.68
2023-03-04T19:10:14.462Z,7.13
2023-03-04T19:12:44.990Z,7.55
2023-03-04T19:15:14.368Z,8.00
2023-03-04T19:17:45.394Z,9.32
2023-03-04T19:20:16.823Z,8.40
2023-03-04T19:22:45.738Z,8.30
2023-03-04T19:25:13.929Z,7.85
2023-03-04T19:27:42.549Z,9.80
2023-03-04T19:30:11.764Z,9.73
2023-03-04T19:32:39.636Z,8.55
2023-03-04T19:35:09.791Z,8.60
2023-03-04T19:37:39.293Z,8.93
2023-03-04T19:40:11.596Z,8.82
2023-03-04T19:42:39.855Z,7.63
2023-03-04T19:45:11.066Z,7.43
2023-03-04T19:47:40.529Z,7.50
2023-03-04T19:50:11.723Z,8.07
2023-03-04T19:52:41.583Z,9.43
2023-03-04T19:55:12.672Z,8.32
2023-03-04T19:57:42.308Z,8.00
2023-03-04T20:00:15.146Z,7.82
2023-03-04T20:02:45.762Z,7.65
2023-03-04T20:05:14.275Z,7.93
2023-03-04T20:07:44.922Z,6.93
2023-03-04T20:10:14.513Z,6.78
2023-03-04T20:12:42.970Z,7.18
2023-03-04T20:15:12.042Z,7.85
2023-03-04T20:17:39.995Z,7.20
2023-03-04T20:20:10.870Z,7.65
2023-03-04T20:22:39.334Z,7.82
2023-03-04T20:25:09.858Z,7.30
2023-03-04T20:27:37.844Z,7.40
2023-03-04T20:30:11.354Z,7.07
2023-03-04T20:32:39.869Z,8.40
2023-03-04T20:35:14.108Z,7.15
2023-03-04T20:37:42.823Z,7.57
2023-03-04T20:40:13.950Z,8.25
2023-03-04T20:42:43.262Z,6.97
2023-03-04T20:45:12.786Z,6.40
2023-03-04T20:47:40.803Z,7.30
2023-03-04T20:50:09.944Z,7.07
2023-03-04T20:52:38.226Z,6.70
2023-03-04T20:55:07.167Z,6.53
2023-03-04T20:57:36.625Z,7.82
2023-03-04T21:00:06.637Z,7.13
2023-03-04T21:02:35.479Z,6.70
2023-03-04T21:05:04.220Z,6.53
2023-03-04T21:07:34.007Z,6.40
2023-03-04T21:10:02.974Z,7.10
2023-03-04T21:12:31.700Z,6.90
2023-03-04T21:15:01.412Z,6.53
2023-03-04T21:17:29.690Z,7.22
2023-03-04T21:19:57.814Z,6.22
2023-03-04T21:22:26.842Z,7.00
2023-03-04T21:24:55.973Z,6.55
2023-03-04T21:27:24.806Z,6.38
2023-03-04T21:29:52.947Z,6.18
2023-03-04T21:32:26.159Z,6.85
2023-03-04T21:34:55.656Z,5.97
2023-03-04T21:37:25.510Z,6.35
2023-03-04T21:39:53.622Z,6.40
2023-03-04T21:42:22.090Z,6.35
2023-03-04T21:44:51.477Z,6.68
2023-03-04T21:47:20.540Z,6.70
2023-03-04T21:49:50.166Z,6.30
2023-03-04T21:52:19.344Z,7.60
2023-03-04T21:54:47.898Z,7.80
2023-03-04T21:57:15.761Z,8.20
2023-03-04T21:59:44.034Z,6.70
2023-03-04T22:02:16.958Z,6.88
2023-03-04T22:04:44.986Z,7.18
2023-03-04T22:07:14.630Z,6.75
2023-03-04T22:09:43.794Z,7.15
2023-03-04T22:12:12.021Z,6.80
2023-03-04T22:14:40.285Z,7.50
2023-03-04T22:17:09.028Z,6.88
2023-03-04T22:19:37.849Z,8.27
2023-03-04T22:22:06.851Z,7.70
2023-03-04T22:24:37.754Z,7.50
2023-03-04T22:27:06.682Z,8.75
2023-03-04T22:29:35.054Z,6.90
2023-03-04T22:32:03.196Z,7.63
2023-03-04T22:34:31.190Z,6.88
2023-03-04T22:36:59.189Z,7.68
2023-03-04T22:39:27.120Z,7.65
2023-03-04T22:41:56.450Z,7.35
2023-03-04T22:44:24.373Z,7.72
2023-03-04T22:46:52.277Z,7.95
2023-03-04T22:49:20.342Z,7.80
2023-03-04T22:51:48.415Z,6.90
2023-03-04T22:54:18.941Z,8.05
2023-03-04T22:56:46.916Z,8.38
2023-03-04T22:59:16.483Z,8.88
2023-03-04T23:01:44.186Z,7.85
2023-03-04T23:04:11.969Z,7.57
2023-03-04T23:06:40.231Z,7.70
2023-03-04T23:09:09.199Z,7.93
2023-03-04T23:11:37.253Z,7.18
2023-03-04T23:14:08.252Z,8.30
2023-03-04T23:16:42.288Z,8.40
2023-03-04T23:19:13.390Z,8.48
2023-03-04T23:21:43.227Z,8.70
2023-03-04T23:24:12.620Z,7.88
2023-03-04T23:26:42.810Z,8.80
2023-03-04T23:29:14.455Z,8.23
2023-03-04T23:31:44.254Z,8.48
2023-03-04T23:34:12.743Z,8.85
2023-03-04T23:36:41.152Z,8.45
2023-03-04T23:39:10.079Z,7.95
2023-03-04T23:41:38.613Z,8.32
2023-03-04T23:44:08.733Z,7.88
2023-03-04T23:46:37.684Z,8.13
2023-03-04T23:49:08.874Z,9.20
2023-03-04T23:51:37.235Z,9.13
2023-03-04T23:54:05.862Z,8.27
2023-03-04T23:56:34.716Z,8.55
2023-03-04T23:59:03.859Z,9.07
